sensor_id;sensor_type;location;lat;lon;timestamp;pressure;altitude;pressure_sealevel;temperature;humidity
19748;BME280;10032;51.386;12.516;2023-02-15T00:01:06;101713.19;;;0.83;100.00
19748;BME280;10032;51.386;12.516;2023-02-15T00:03:31;101703.97;;;0.77;100.00
19748;BME280;10032;51.386;12.516;2023-02-15T00:05:57;101706.78;;;0.76;100.00
19748;BME280;10032;51.386;12.516;2023-02-15T00:08:23;101708.59;;;0.75;100.00
19748;BME280;10032;51.386;12.516;2023-02-15T00:10:51;101704.09;;;0.76;100.00
19748;BME280;10032;51.386;12.516;2023-02-15T00:13:16;101710.44;;;0.75;100.00
19748;BME280;10032;51.386;12.516;2023-02-15T00:15:42;101692.59;;;0.75;100.00
19748;BME280;10032;51.386;12.516;2023-02-15T00:18:07;101695.56;;;0.72;100.00
19748;BME280;10032;51.386;12.516;2023-02-15T00:20:32;101683.38;;;0.70;100.00
19748;BME280;10032;51.386;12.516;2023-02-15T00:22:58;101685.19;;;0.69;100.00
19748;BME280;10032;51.386;12.516;2023-02-15T00:25:24;101687.16;;;0.67;100.00
19748;BME280;10032;51.386;12.516;2023-02-15T00:27:50;101691.41;;;0.60;100.00
19748;BME280;10032;51.386;12.516;2023-02-15T00:30:15;101686.06;;;0.60;100.00
19748;BME280;10032;51.386;12.516;2023-02-15T00:32:41;101689.72;;;0.59;100.00
19748;BME280;10032;51.386;12.516;2023-02-15T00:35:06;101680.72;;;0.60;100.00
19748;BME280;10032;51.386;12.516;2023-02-15T00:37:32;101686.06;;;0.60;100.00
19748;BME280;10032;51.386;12.516;2023-02-15T00:39:57;101684.72;;;0.56;100.00
19748;BME280;10032;51.386;12.516;2023-02-15T00:42:23;101680.50;;;0.54;100.00
19748;BME280;10032;51.386;12.516;2023-02-15T00:44:49;101678.84;;;0.53;100.00
19748;BME280;10032;51.386;12.516;2023-02-15T00:47:14;101673.31;;;0.54;100.00
19748;BME280;10032;51.386;12.516;2023-02-15T00:49:40;101674.31;;;0.53;100.00
19748;BME280;10032;51.386;12.516;2023-02-15T00:52:05;101666.91;;;0.47;100.00
19748;BME280;10032;51.386;12.516;2023-02-15T00:54:30;101664.41;;;0.46;100.00
19748;BME280;10032;51.386;12.516;2023-02-15T00:56:56;101668.44;;;0.50;100.00
19748;BME280;10032;51.386;12.516;2023-02-15T00:59:21;101666.63;;;0.50;100.00
19748;BME280;10032;51.386;12.516;2023-02-15T01:01:46;101661.31;;;0.50;100.00
19748;BME280;10032;51.386;12.516;2023-02-15T01:04:12;101657.66;;;0.51;100.00
19748;BME280;10032;51.386;12.516;2023-02-15T01:06:37;101664.50;;;0.54;100.00
19748;BME280;10032;51.386;12.516;2023-02-15T01:09:03;101657.19;;;0.56;100.00
19748;BME280;10032;51.386;12.516;2023-02-15T01:11:28;101655.38;;;0.56;100.00
19748;BME280;10032;51.386;12.516;2023-02-15T01:13:58;101656.19;;;0.57;100.00
19748;BME280;10032;51.386;12.516;2023-02-15T01:16:25;101657.34;;;0.54;100.00
19748;BME280;10032;51.386;12.516;2023-02-15T01:18:51;101657.34;;;0.54;100.00
19748;BME280;10032;51.386;12.516;2023-02-15T01:21:19;101660.84;;;0.55;100.00
19748;BME280;10032;51.386;12.516;2023-02-15T01:23:45;101660.84;;;0.55;100.00
19748;BME280;10032;51.386;12.516;2023-02-15T01:26:11;101658.31;;;0.53;100.00
19748;BME280;10032;51.386;12.516;2023-02-15T01:28:37;101644.75;;;0.47;100.00
19748;BME280;10032;51.386;12.516;2023-02-15T01:31:08;101650.25;;;0.45;100.00
19748;BME280;10032;51.386;12.516;2023-02-15T01:33:34;101653.34;;;0.41;100.00
19748;BME280;10032;51.386;12.516;2023-02-15T01:36:00;101649.13;;;0.38;100.00
19748;BME280;10032;51.386;12.516;2023-02-15T01:38:26;101652.72;;;0.29;100.00
19748;BME280;10032;51.386;12.516;2023-02-15T01:40:52;101644.72;;;0.29;100.00
19748;BME280;10032;51.386;12.516;2023-02-15T01:43:18;101649.72;;;0.32;100.00
19748;BME280;10032;51.386;12.516;2023-02-15T01:45:45;101642.72;;;0.31;100.00
19748;BME280;10032;51.386;12.516;2023-02-15T01:48:20;101644.00;;;0.27;100.00
19748;BME280;10032;51.386;12.516;2023-02-15T01:50:54;101647.66;;;0.26;100.00
19748;BME280;10032;51.386;12.516;2023-02-15T01:53:24;101634.63;;;0.23;100.00
19748;BME280;10032;51.386;12.516;2023-02-15T01:55:56;101632.66;;;0.25;100.00
19748;BME280;10032;51.386;12.516;2023-02-15T01:58:25;101630.69;;;0.27;100.00
19748;BME280;10032;51.386;12.516;2023-02-15T02:00:52;101633.34;;;0.27;100.00
19748;BME280;10032;51.386;12.516;2023-02-15T02:03:35;101623.69;;;0.26;100.00
19748;BME280;10032;51.386;12.516;2023-02-15T02:06:03;101623.13;;;0.23;100.00
19748;BME280;10032;51.386;12.516;2023-02-15T02:08:29;101618.09;;;0.20;100.00
19748;BME280;10032;51.386;12.516;2023-02-15T02:10:55;101622.88;;;0.16;100.00
19748;BME280;10032;51.386;12.516;2023-02-15T02:13:20;101620.06;;;0.18;100.00
19748;BME280;10032;51.386;12.516;2023-02-15T02:15:58;101615.19;;;0.13;100.00
19748;BME280;10032;51.386;12.516;2023-02-15T02:35:00;101604.03;;;0.00;100.00
19748;BME280;10032;51.386;12.516;2023-02-15T02:37:36;101601.34;;;0.00;100.00
19748;BME280;10032;51.386;12.516;2023-02-15T02:43:01;101602.34;;;-0.01;100.00
19748;BME280;10032;51.386;12.516;2023-02-15T02:48:34;101603.47;;;-0.03;100.00
19748;BME280;10032;51.386;12.516;2023-02-15T02:50:59;101601.25;;;-0.08;100.00
19748;BME280;10032;51.386;12.516;2023-02-15T02:53:26;101589.63;;;-0.07;100.00
19748;BME280;10032;51.386;12.516;2023-02-15T02:56:00;101588.38;;;-0.12;100.00
19748;BME280;10032;51.386;12.516;2023-02-15T02:59:05;101591.03;;;-0.12;100.00
19748;BME280;10032;51.386;12.516;2023-02-15T03:01:36;101590.22;;;-0.13;100.00
19748;BME280;10032;51.386;12.516;2023-02-15T03:04:09;101594.53;;;-0.12;100.00
19748;BME280;10032;51.386;12.516;2023-02-15T03:06:52;101574.22;;;-0.13;100.00
19748;BME280;10032;51.386;12.516;2023-02-15T03:11:49;101578.16;;;-0.17;100.00
19748;BME280;10032;51.386;12.516;2023-02-15T03:14:16;101569.47;;;-0.19;100.00
19748;BME280;10032;51.386;12.516;2023-02-15T03:16:46;101570.44;;;-0.20;100.00
19748;BME280;10032;51.386;12.516;2023-02-15T03:19:16;101562.78;;;-0.22;100.00
19748;BME280;10032;51.386;12.516;2023-02-15T03:21:55;101563.91;;;-0.25;100.00
19748;BME280;10032;51.386;12.516;2023-02-15T03:24:41;101569.78;;;-0.22;100.00
19748;BME280;10032;51.386;12.516;2023-02-15T03:27:16;101570.06;;;-0.25;100.00
19748;BME280;10032;51.386;12.516;2023-02-15T03:29:46;101563.78;;;-0.23;100.00
19748;BME280;10032;51.386;12.516;2023-02-15T03:32:14;101563.06;;;-0.26;100.00
19748;BME280;10032;51.386;12.516;2023-02-15T03:34:41;101565.56;;;-0.24;100.00
19748;BME280;10032;51.386;12.516;2023-02-15T03:37:29;101565.72;;;-0.26;100.00
19748;BME280;10032;51.386;12.516;2023-02-15T03:45:51;101553.41;;;-0.27;100.00
19748;BME280;10032;51.386;12.516;2023-02-15T03:48:27;101551.88;;;-0.29;100.00
19748;BME280;10032;51.386;12.516;2023-02-15T03:50:57;101550.19;;;-0.30;100.00
19748;BME280;10032;51.386;12.516;2023-02-15T03:53:46;101553.41;;;-0.27;100.00
19748;BME280;10032;51.386;12.516;2023-02-15T03:56:12;101544.03;;;-0.31;100.00
19748;BME280;10032;51.386;12.516;2023-02-15T03:58:37;101548.66;;;-0.32;100.00
19748;BME280;10032;51.386;12.516;2023-02-15T04:01:38;101544.31;;;-0.33;100.00
19748;BME280;10032;51.386;12.516;2023-02-15T04:04:37;101547.25;;;-0.37;100.00
19748;BME280;10032;51.386;12.516;2023-02-15T04:07:06;101539.59;;;-0.39;100.00
19748;BME280;10032;51.386;12.516;2023-02-15T04:09:32;101551.38;;;-0.42;100.00
19748;BME280;10032;51.386;12.516;2023-02-15T04:12:16;101555.84;;;-0.43;100.00
19748;BME280;10032;51.386;12.516;2023-02-15T04:14:41;101544.19;;;-0.42;100.00
19748;BME280;10032;51.386;12.516;2023-02-15T04:17:25;101552.50;;;-0.44;100.00
19748;BME280;10032;51.386;12.516;2023-02-15T04:19:51;101546.84;;;-0.42;100.00
19748;BME280;10032;51.386;12.516;2023-02-15T04:22:35;101549.38;;;-0.40;100.00
19748;BME280;10032;51.386;12.516;2023-02-15T04:25:19;101547.00;;;-0.33;100.00
19748;BME280;10032;51.386;12.516;2023-02-15T04:27:48;101545.44;;;-0.36;100.00
19748;BME280;10032;51.386;12.516;2023-02-15T04:30:15;101552.31;;;-0.33;100.00
19748;BME280;10032;51.386;12.516;2023-02-15T04:32:41;101547.25;;;-0.37;100.00
19748;BME280;10032;51.386;12.516;2023-02-15T04:35:08;101544.91;;;-0.39;100.00
19748;BME280;10032;51.386;12.516;2023-02-15T04:37:34;101537.06;;;-0.41;100.00
19748;BME280;10032;51.386;12.516;2023-02-15T04:40:03;101542.38;;;-0.41;100.00
19748;BME280;10032;51.386;12.516;2023-02-15T04:42:28;101532.03;;;-0.44;100.00
19748;BME280;10032;51.386;12.516;2023-02-15T04:44:54;101534.53;;;-0.43;100.00
19748;BME280;10032;51.386;12.516;2023-02-15T04:47:19;101529.34;;;-0.44;100.00
19748;BME280;10032;51.386;12.516;2023-02-15T04:49:45;101527.56;;;-0.43;100.00
19748;BME280;10032;51.386;12.516;2023-02-15T04:52:10;101521.38;;;-0.44;100.00
19748;BME280;10032;51.386;12.516;2023-02-15T04:54:36;101524.16;;;-0.46;100.00
19748;BME280;10032;51.386;12.516;2023-02-15T04:57:03;101524.03;;;-0.44;100.00
19748;BME280;10032;51.386;12.516;2023-02-15T04:59:28;101525.56;;;-0.42;100.00
19748;BME280;10032;51.386;12.516;2023-02-15T05:01:54;101520.38;;;-0.43;100.00
19748;BME280;10032;51.386;12.516;2023-02-15T05:04:19;101518.56;;;-0.43;100.00
19748;BME280;10032;51.386;12.516;2023-02-15T05:06:45;101516.59;;;-0.41;100.00
19748;BME280;10032;51.386;12.516;2023-02-15T05:09:13;101506.13;;;-0.42;100.00
19748;BME280;10032;51.386;12.516;2023-02-15T05:11:39;101508.06;;;-0.44;100.00
19748;BME280;10032;51.386;12.516;2023-02-15T05:14:04;101501.94;;;-0.44;100.00
19748;BME280;10032;51.386;12.516;2023-02-15T05:16:30;101501.75;;;-0.43;100.00
19748;BME280;10032;51.386;12.516;2023-02-15T05:18:55;101497.28;;;-0.43;100.00
19748;BME280;10032;51.386;12.516;2023-02-15T05:21:21;101502.59;;;-0.43;100.00
19748;BME280;10032;51.386;12.516;2023-02-15T05:23:46;101500.63;;;-0.41;100.00
19748;BME280;10032;51.386;12.516;2023-02-15T05:26:19;101504.28;;;-0.42;100.00
19748;BME280;10032;51.386;12.516;2023-02-15T05:29:03;101498.94;;;-0.42;100.00
19748;BME280;10032;51.386;12.516;2023-02-15T05:31:31;101499.94;;;-0.43;100.00
19748;BME280;10032;51.386;12.516;2023-02-15T05:33:56;101492.94;;;-0.43;100.00
19748;BME280;10032;51.386;12.516;2023-02-15T05:36:22;101488.63;;;-0.44;100.00
19748;BME280;10032;51.386;12.516;2023-02-15T05:38:47;101487.63;;;-0.43;100.00
19748;BME280;10032;51.386;12.516;2023-02-15T05:41:13;101487.22;;;-0.48;100.00
19748;BME280;10032;51.386;12.516;2023-02-15T05:43:39;101485.97;;;-0.44;100.00
19748;BME280;10032;51.386;12.516;2023-02-15T05:46:05;101494.75;;;-0.44;100.00
19748;BME280;10032;51.386;12.516;2023-02-15T05:48:31;101486.78;;;-0.44;100.00
19748;BME280;10032;51.386;12.516;2023-02-15T05:51:04;101486.09;;;-0.46;100.00
19748;BME280;10032;51.386;12.516;2023-02-15T05:53:31;101493.22;;;-0.47;100.00
19748;BME280;10032;51.386;12.516;2023-02-15T05:55:57;101493.22;;;-0.47;100.00
19748;BME280;10032;51.386;12.516;2023-02-15T05:58:29;101500.41;;;-0.47;100.00
19748;BME280;10032;51.386;12.516;2023-02-15T06:00:55;101489.75;;;-0.47;100.00
19748;BME280;10032;51.386;12.516;2023-02-15T06:03:21;101494.22;;;-0.47;100.00
19748;BME280;10032;51.386;12.516;2023-02-15T06:05:47;101500.41;;;-0.47;100.00
19748;BME280;10032;51.386;12.516;2023-02-15T06:08:13;101495.63;;;-0.43;100.00
19748;BME280;10032;51.386;12.516;2023-02-15T06:10:38;101503.16;;;-0.39;100.00
19748;BME280;10032;51.386;12.516;2023-02-15T06:13:05;101503.59;;;-0.43;100.00
19748;BME280;10032;51.386;12.516;2023-02-15T06:15:30;101503.28;;;-0.41;100.00
19748;BME280;10032;51.386;12.516;2023-02-15T06:17:56;101495.84;;;-0.37;100.00
19748;BME280;10032;51.386;12.516;2023-02-15T06:20:21;101495.03;;;-0.38;100.00
19748;BME280;10032;51.386;12.516;2023-02-15T06:22:47;101488.25;;;-0.32;100.00
19748;BME280;10032;51.386;12.516;2023-02-15T06:25:13;101494.81;;;-0.27;100.00
19748;BME280;10032;51.386;12.516;2023-02-15T06:27:41;101497.22;;;-0.23;100.00
19748;BME280;10032;51.386;12.516;2023-02-15T06:30:08;101490.59;;;-0.20;100.00
19748;BME280;10032;51.386;12.516;2023-02-15T06:32:33;101503.47;;;-0.15;100.00
19748;BME280;10032;51.386;12.516;2023-02-15T06:34:59;101493.22;;;-0.10;100.00
19748;BME280;10032;51.386;12.516;2023-02-15T06:37:24;101494.44;;;-0.05;100.00
19748;BME280;10032;51.386;12.516;2023-02-15T06:39:50;101493.16;;;-0.01;100.00
19748;BME280;10032;51.386;12.516;2023-02-15T06:42:15;101494.81;;;0.00;100.00
19748;BME280;10032;51.386;12.516;2023-02-15T06:44:43;101495.50;;;0.02;100.00
19748;BME280;10032;51.386;12.516;2023-02-15T06:47:08;101495.91;;;0.07;100.00
19748;BME280;10032;51.386;12.516;2023-02-15T06:49:33;101497.75;;;0.07;100.00
19748;BME280;10032;51.386;12.516;2023-02-15T06:51:59;101497.59;;;0.08;100.00
19748;BME280;10032;51.386;12.516;2023-02-15T06:54:24;101495.47;;;0.12;100.00
19748;BME280;10032;51.386;12.516;2023-02-15T06:56:50;101492.66;;;0.13;100.00
19748;BME280;10032;51.386;12.516;2023-02-15T06:59:15;101493.34;;;0.15;100.00
19748;BME280;10032;51.386;12.516;2023-02-15T07:01:40;101492.88;;;0.20;100.00
19748;BME280;10032;51.386;12.516;2023-02-15T07:04:06;101492.44;;;0.24;100.00
19748;BME280;10032;51.386;12.516;2023-02-15T07:06:32;101490.47;;;0.26;100.00
19748;BME280;10032;51.386;12.516;2023-02-15T07:08:58;101487.66;;;0.28;100.00
19748;BME280;10032;51.386;12.516;2023-02-15T07:11:24;101486.19;;;0.33;100.00
19748;BME280;10032;51.386;12.516;2023-02-15T07:14:08;101487.56;;;0.37;100.00
19748;BME280;10032;51.386;12.516;2023-02-15T07:16:33;101499.09;;;0.38;100.00
19748;BME280;10032;51.386;12.516;2023-02-15T07:18:59;101489.47;;;0.45;100.00
19748;BME280;10032;51.386;12.516;2023-02-15T07:21:24;101488.88;;;0.51;100.00
19748;BME280;10032;51.386;12.516;2023-02-15T07:23:49;101489.25;;;0.56;100.00
19748;BME280;10032;51.386;12.516;2023-02-15T07:26:15;101477.44;;;0.58;100.00
19748;BME280;10032;51.386;12.516;2023-02-15T07:28:40;101485.69;;;0.65;100.00
19748;BME280;10032;51.386;12.516;2023-02-15T07:31:06;101469.91;;;0.71;100.00
19748;BME280;10032;51.386;12.516;2023-02-15T07:33:32;101468.28;;;0.78;100.00
19748;BME280;10032;51.386;12.516;2023-02-15T07:36:00;101460.53;;;0.85;100.00
19748;BME280;10032;51.386;12.516;2023-02-15T07:38:30;101458.41;;;0.96;100.00
19748;BME280;10032;51.386;12.516;2023-02-15T07:41:02;101447.66;;;1.06;100.00
19748;BME280;10032;51.386;12.516;2023-02-15T07:43:29;101452.03;;;1.15;100.00
19748;BME280;10032;51.386;12.516;2023-02-15T07:45:59;101450.09;;;1.25;100.00
19748;BME280;10032;51.386;12.516;2023-02-15T07:48:25;101444.84;;;1.33;100.00
19748;BME280;10032;51.386;12.516;2023-02-15T07:50:51;101443.03;;;1.41;100.00
19748;BME280;10032;51.386;12.516;2023-02-15T07:53:16;101436.75;;;1.50;100.00
19748;BME280;10032;51.386;12.516;2023-02-15T07:55:42;101434.09;;;1.58;100.00
19748;BME280;10032;51.386;12.516;2023-02-15T07:58:07;101436.47;;;1.69;100.00
19748;BME280;10032;51.386;12.516;2023-02-15T08:00:33;101433.50;;;1.80;100.00
19748;BME280;10032;51.386;12.516;2023-02-15T08:03:18;101441.72;;;1.95;100.00
19748;BME280;10032;51.386;12.516;2023-02-15T08:05:44;101429.91;;;2.05;100.00
19748;BME280;10032;51.386;12.516;2023-02-15T08:08:10;101429.63;;;2.16;100.00
19748;BME280;10032;51.386;12.516;2023-02-15T08:11:18;101425.97;;;2.33;100.00
19748;BME280;10032;51.386;12.516;2023-02-15T08:13:55;101424.66;;;2.45;100.00
19748;BME280;10032;51.386;12.516;2023-02-15T08:16:37;101417.63;;;2.60;100.00
19748;BME280;10032;51.386;12.516;2023-02-15T08:19:46;101414.28;;;2.74;100.00
19748;BME280;10032;51.386;12.516;2023-02-15T08:21:58;101419.44;;;2.84;100.00
19748;BME280;10032;51.386;12.516;2023-02-15T08:24:26;101413.25;;;2.99;100.00
19748;BME280;10032;51.386;12.516;2023-02-15T08:26:53;101408.19;;;3.12;100.00
19748;BME280;10032;51.386;12.516;2023-02-15T08:29:21;101405.16;;;3.31;100.00
19748;BME280;10032;51.386;12.516;2023-02-15T08:31:52;101400.75;;;3.46;100.00
19748;BME280;10032;51.386;12.516;2023-02-15T08:34:18;101403.03;;;3.57;100.00
19748;BME280;10032;51.386;12.516;2023-02-15T08:36:44;101404.00;;;3.64;100.00
19748;BME280;10032;51.386;12.516;2023-02-15T08:39:14;101402.28;;;3.71;100.00
19748;BME280;10032;51.386;12.516;2023-02-15T08:41:41;101398.09;;;3.77;100.00
19748;BME280;10032;51.386;12.516;2023-02-15T08:44:08;101402.50;;;3.92;100.00
19748;BME280;10032;51.386;12.516;2023-02-15T08:46:40;101403.97;;;4.03;100.00
19748;BME280;10032;51.386;12.516;2023-02-15T08:49:06;101396.38;;;4.14;100.00
19748;BME280;10032;51.386;12.516;2023-02-15T08:51:34;101393.28;;;4.25;100.00
19748;BME280;10032;51.386;12.516;2023-02-15T08:54:03;101388.63;;;4.42;100.00
19748;BME280;10032;51.386;12.516;2023-02-15T08:56:33;101386.81;;;4.57;100.00
19748;BME280;10032;51.386;12.516;2023-02-15T08:58:59;101379.19;;;4.68;100.00
19748;BME280;10032;51.386;12.516;2023-02-15T09:01:30;101385.88;;;4.72;100.00
19748;BME280;10032;51.386;12.516;2023-02-15T09:04:01;101376.53;;;4.83;100.00
19748;BME280;10032;51.386;12.516;2023-02-15T09:06:27;101372.53;;;4.93;100.00
19748;BME280;10032;51.386;12.516;2023-02-15T09:08:54;101374.53;;;4.99;100.00
19748;BME280;10032;51.386;12.516;2023-02-15T09:11:21;101368.50;;;5.12;100.00
19748;BME280;10032;51.386;12.516;2023-02-15T09:13:56;101372.84;;;5.27;100.00
19748;BME280;10032;51.386;12.516;2023-02-15T09:16:23;101373.03;;;5.40;100.00
19748;BME280;10032;51.386;12.516;2023-02-15T09:18:49;101370.13;;;5.56;100.00
19748;BME280;10032;51.386;12.516;2023-02-15T09:21:18;101367.63;;;5.69;100.00
19748;BME280;10032;51.386;12.516;2023-02-15T09:23:45;101368.84;;;5.81;100.00
19748;BME280;10032;51.386;12.516;2023-02-15T09:26:13;101369.63;;;5.96;100.00
19748;BME280;10032;51.386;12.516;2023-02-15T09:28:39;101369.53;;;6.04;100.00
19748;BME280;10032;51.386;12.516;2023-02-15T09:31:16;101374.69;;;6.20;100.00
19748;BME280;10032;51.386;12.516;2023-02-15T09:33:44;101369.03;;;6.36;100.00
19748;BME280;10032;51.386;12.516;2023-02-15T09:36:25;101366.66;;;6.48;100.00
19748;BME280;10032;51.386;12.516;2023-02-15T09:38:55;101363.06;;;6.62;100.00
19748;BME280;10032;51.386;12.516;2023-02-15T09:59:21;101367.50;;;7.71;100.00
19748;BME280;10032;51.386;12.516;2023-02-15T10:04:32;101364.28;;;7.95;100.00
19748;BME280;10032;51.386;12.516;2023-02-15T10:09:52;101367.31;;;8.39;100.00
19748;BME280;10032;51.386;12.516;2023-02-15T10:28:19;101353.16;;;9.15;100.00
19748;BME280;10032;51.386;12.516;2023-02-15T10:30:49;101343.97;;;9.23;100.00
19748;BME280;10032;51.386;12.516;2023-02-15T10:33:40;101346.47;;;9.37;100.00
19748;BME280;10032;51.386;12.516;2023-02-15T10:36:29;101337.69;;;9.48;100.00
19748;BME280;10032;51.386;12.516;2023-02-15T10:41:58;101348.16;;;9.76;100.00
19748;BME280;10032;51.386;12.516;2023-02-15T10:47:35;101333.22;;;10.17;100.00
19748;BME280;10032;51.386;12.516;2023-02-15T10:50:09;101331.88;;;10.26;100.00
19748;BME280;10032;51.386;12.516;2023-02-15T11:00:47;101316.50;;;10.76;100.00
19748;BME280;10032;51.386;12.516;2023-02-15T11:06:07;101314.38;;;11.02;100.00
19748;BME280;10032;51.386;12.516;2023-02-15T11:08:40;101308.22;;;11.13;100.00
19748;BME280;10032;51.386;12.516;2023-02-15T11:11:12;101301.06;;;11.37;100.00
19748;BME280;10032;51.386;12.516;2023-02-15T11:13:45;101295.63;;;11.37;100.00
19748;BME280;10032;51.386;12.516;2023-02-15T11:16:20;101294.72;;;11.43;100.00
19748;BME280;10032;51.386;12.516;2023-02-15T11:21:22;101293.00;;;11.66;100.00
19748;BME280;10032;51.386;12.516;2023-02-15T11:23:50;101281.50;;;11.82;100.00
19748;BME280;10032;51.386;12.516;2023-02-15T11:26:34;101276.00;;;11.89;100.00
19748;BME280;10032;51.386;12.516;2023-02-15T11:31:46;101282.69;;;12.16;100.00
19748;BME280;10032;51.386;12.516;2023-02-15T11:34:25;101286.97;;;12.23;100.00
19748;BME280;10032;51.386;12.516;2023-02-15T11:36:55;101280.59;;;12.29;100.00
19748;BME280;10032;51.386;12.516;2023-02-15T11:39:24;101272.75;;;12.21;100.00
19748;BME280;10032;51.386;12.516;2023-02-15T11:41:57;101268.91;;;12.40;100.00
19748;BME280;10032;51.386;12.516;2023-02-15T11:44:35;101272.34;;;12.47;100.00
19748;BME280;10032;51.386;12.516;2023-02-15T11:47:02;101269.16;;;12.50;100.00
19748;BME280;10032;51.386;12.516;2023-02-15T11:49:32;101260.91;;;12.45;100.00
19748;BME280;10032;51.386;12.516;2023-02-15T11:52:00;101258.66;;;12.54;100.00
19748;BME280;10032;51.386;12.516;2023-02-15T11:54:29;101253.34;;;12.70;100.00
19748;BME280;10032;51.386;12.516;2023-02-15T11:57:02;101247.78;;;12.77;100.00
19748;BME280;10032;51.386;12.516;2023-02-15T11:59:34;101247.66;;;12.83;100.00
19748;BME280;10032;51.386;12.516;2023-02-15T12:02:02;101249.19;;;12.91;100.00
19748;BME280;10032;51.386;12.516;2023-02-15T12:04:34;101255.38;;;12.98;100.00
19748;BME280;10032;51.386;12.516;2023-02-15T12:12:25;101254.53;;;12.86;100.00
19748;BME280;10032;51.386;12.516;2023-02-15T12:14:56;101260.91;;;12.91;100.00
19748;BME280;10032;51.386;12.516;2023-02-15T12:17:54;101254.63;;;12.91;100.00
19748;BME280;10032;51.386;12.516;2023-02-15T12:22:50;101254.56;;;12.97;100.00
19748;BME280;10032;51.386;12.516;2023-02-15T12:25:29;101243.44;;;12.99;100.00
19748;BME280;10032;51.386;12.516;2023-02-15T12:27:58;101246.28;;;13.04;100.00
19748;BME280;10032;51.386;12.516;2023-02-15T12:30:36;101247.44;;;12.85;100.00
19748;BME280;10032;51.386;12.516;2023-02-15T12:35:33;101244.94;;;12.83;100.00
19748;BME280;10032;51.386;12.516;2023-02-15T12:40:35;101243.53;;;12.69;100.00
19748;BME280;10032;51.386;12.516;2023-02-15T12:43:01;101245.44;;;12.69;100.00
19748;BME280;10032;51.386;12.516;2023-02-15T12:45:35;101242.34;;;12.65;100.00
19748;BME280;10032;51.386;12.516;2023-02-15T12:48:18;101237.59;;;12.61;100.00
19748;BME280;10032;51.386;12.516;2023-02-15T12:50:50;101235.16;;;12.59;100.00
19748;BME280;10032;51.386;12.516;2023-02-15T12:53:19;101233.13;;;12.55;100.00
19748;BME280;10032;51.386;12.516;2023-02-15T12:56:06;101228.16;;;12.52;100.00
19748;BME280;10032;51.386;12.516;2023-02-15T12:58:33;101235.25;;;12.53;100.00
19748;BME280;10032;51.386;12.516;2023-02-15T13:03:35;101227.56;;;12.50;100.00
19748;BME280;10032;51.386;12.516;2023-02-15T13:06:01;101223.19;;;12.49;100.00
19748;BME280;10032;51.386;12.516;2023-02-15T13:08:34;101217.28;;;12.40;100.00
19748;BME280;10032;51.386;12.516;2023-02-15T13:11:07;101211.84;;;12.40;100.00
19748;BME280;10032;51.386;12.516;2023-02-15T13:13:52;101210.31;;;12.44;100.00
19748;BME280;10032;51.386;12.516;2023-02-15T13:16:30;101206.66;;;12.50;100.00
19748;BME280;10032;51.386;12.516;2023-02-15T13:18:57;101201.69;;;12.47;100.00
19748;BME280;10032;51.386;12.516;2023-02-15T13:21:26;101199.34;;;12.51;100.00
19748;BME280;10032;51.386;12.516;2023-02-15T13:24:16;101185.25;;;12.42;100.00
19748;BME280;10032;51.386;12.516;2023-02-15T13:26:43;101185.25;;;12.42;100.00
19748;BME280;10032;51.386;12.516;2023-02-15T13:29:22;101185.63;;;12.34;100.00
19748;BME280;10032;51.386;12.516;2023-02-15T13:31:50;101178.03;;;12.36;100.00
19748;BME280;10032;51.386;12.516;2023-02-15T13:34:24;101180.41;;;12.44;100.00
19748;BME280;10032;51.386;12.516;2023-02-15T13:42:13;101181.69;;;12.53;99.19
19748;BME280;10032;51.386;12.516;2023-02-15T13:45:32;101174.16;;;12.55;98.01
19748;BME280;10032;51.386;12.516;2023-02-15T13:51:21;101168.47;;;12.45;95.74
19748;BME280;10032;51.386;12.516;2023-02-15T14:01:46;101176.84;;;12.44;94.11
19748;BME280;10032;51.386;12.516;2023-02-15T14:04:23;101170.50;;;12.38;93.58
19748;BME280;10032;51.386;12.516;2023-02-15T14:10:25;101167.03;;;12.31;93.43
19748;BME280;10032;51.386;12.516;2023-02-15T14:15:38;101175.31;;;12.36;90.97
19748;BME280;10032;51.386;12.516;2023-02-15T14:18:25;101176.97;;;12.37;91.23
19748;BME280;10032;51.386;12.516;2023-02-15T14:21:06;101175.31;;;12.36;90.36
19748;BME280;10032;51.386;12.516;2023-02-15T14:26:11;101170.13;;;12.35;87.76
19748;BME280;10032;51.386;12.516;2023-02-15T14:31:34;101145.31;;;12.31;87.48
19748;BME280;10032;51.386;12.516;2023-02-15T14:34:03;101153.94;;;12.28;87.38
19748;BME280;10032;51.386;12.516;2023-02-15T14:36:30;101158.78;;;12.26;87.33
19748;BME280;10032;51.386;12.516;2023-02-15T14:42:18;101140.00;;;12.25;86.56
19748;BME280;10032;51.386;12.516;2023-02-15T14:45:06;101154.41;;;12.25;86.45
19748;BME280;10032;51.386;12.516;2023-02-15T14:47:44;101155.81;;;12.28;85.82
19748;BME280;10032;51.386;12.516;2023-02-15T14:53:32;101145.69;;;12.23;86.28
19748;BME280;10032;51.386;12.516;2023-02-15T14:58:56;101146.75;;;12.22;85.69
19748;BME280;10032;51.386;12.516;2023-02-15T15:01:33;101144.03;;;12.22;85.75
19748;BME280;10032;51.386;12.516;2023-02-15T15:04:10;101142.84;;;12.18;84.85
19748;BME280;10032;51.386;12.516;2023-02-15T15:06:41;101142.00;;;12.18;85.08
19748;BME280;10032;51.386;12.516;2023-02-15T15:09:25;101142.72;;;12.13;84.26
19748;BME280;10032;51.386;12.516;2023-02-15T15:11:53;101136.94;;;12.10;84.10
19748;BME280;10032;51.386;12.516;2023-02-15T15:17:01;101139.88;;;12.08;84.07
19748;BME280;10032;51.386;12.516;2023-02-15T15:22:21;101125.94;;;12.05;83.62